sensor_id;sensor_type;location;lat;lon;timestamp;P1;durP1;ratioP1;P2;durP2;ratioP2
14799;SDS011;7491;57.750;11.970;2023-06-01T00:01:44;16.90;;;3.55;;
14799;SDS011;7491;57.750;11.970;2023-06-01T00:04:11;19.23;;;4.30;;
14799;SDS011;7491;57.750;11.970;2023-06-01T00:06:39;14.35;;;3.80;;
14799;SDS011;7491;57.750;11.970;2023-06-01T00:09:06;16.27;;;4.28;;
14799;SDS011;7491;57.750;11.970;2023-06-01T00:11:33;17.65;;;4.50;;
14799;SDS011;7491;57.750;11.970;2023-06-01T00:14:00;14.75;;;3.85;;
14799;SDS011;7491;57.750;11.970;2023-06-01T00:16:26;14.77;;;3.80;;
14799;SDS011;7491;57.750;11.970;2023-06-01T00:18:55;17.35;;;3.70;;
14799;SDS011;7491;57.750;11.970;2023-06-01T00:21:22;13.18;;;3.60;;
14799;SDS011;7491;57.750;11.970;2023-06-01T00:23:49;18.48;;;4.10;;
14799;SDS011;7491;57.750;11.970;2023-06-01T00:26:16;11.70;;;3.38;;
14799;SDS011;7491;57.750;11.970;2023-06-01T00:28:43;17.95;;;3.63;;
14799;SDS011;7491;57.750;11.970;2023-06-01T00:31:10;13.70;;;3.80;;
14799;SDS011;7491;57.750;11.970;2023-06-01T00:33:36;14.43;;;3.80;;
14799;SDS011;7491;57.750;11.970;2023-06-01T00:36:05;22.02;;;4.05;;
14799;SDS011;7491;57.750;11.970;2023-06-01T00:38:32;14.02;;;3.60;;
14799;SDS011;7491;57.750;11.970;2023-06-01T00:40:59;13.48;;;4.03;;
14799;SDS011;7491;57.750;11.970;2023-06-01T00:43:25;16.30;;;4.15;;
14799;SDS011;7491;57.750;11.970;2023-06-01T00:45:52;16.02;;;4.20;;
14799;SDS011;7491;57.750;11.970;2023-06-01T00:48:19;10.88;;;3.90;;
14799;SDS011;7491;57.750;11.970;2023-06-01T00:50:48;16.13;;;3.83;;
14799;SDS011;7491;57.750;11.970;2023-06-01T00:53:17;15.13;;;4.00;;
14799;SDS011;7491;57.750;11.970;2023-06-01T00:55:45;15.50;;;3.67;;
14799;SDS011;7491;57.750;11.970;2023-06-01T00:58:12;11.73;;;3.55;;
14799;SDS011;7491;57.750;11.970;2023-06-01T01:00:40;13.60;;;3.67;;
14799;SDS011;7491;57.750;11.970;2023-06-01T01:03:07;15.25;;;3.83;;
14799;SDS011;7491;57.750;11.970;2023-06-01T01:05:35;13.52;;;4.32;;
14799;SDS011;7491;57.750;11.970;2023-06-01T01:08:05;16.10;;;4.22;;
14799;SDS011;7491;57.750;11.970;2023-06-01T01:10:41;16.83;;;5.22;;
14799;SDS011;7491;57.750;11.970;2023-06-01T01:13:19;14.00;;;3.70;;
14799;SDS011;7491;57.750;11.970;2023-06-01T01:15:51;17.15;;;3.60;;
14799;SDS011;7491;57.750;11.970;2023-06-01T01:18:25;16.08;;;4.00;;
14799;SDS011;7491;57.750;11.970;2023-06-01T01:21:03;15.98;;;3.88;;
14799;SDS011;7491;57.750;11.970;2023-06-01T01:23:55;13.68;;;3.80;;
14799;SDS011;7491;57.750;11.970;2023-06-01T01:26:50;14.18;;;4.50;;
14799;SDS011;7491;57.750;11.970;2023-06-01T01:29:24;17.67;;;4.05;;
14799;SDS011;7491;57.750;11.970;2023-06-01T01:31:55;17.33;;;4.72;;
14799;SDS011;7491;57.750;11.970;2023-06-01T01:34:22;11.93;;;4.20;;
14799;SDS011;7491;57.750;11.970;2023-06-01T01:36:52;17.38;;;4.82;;
14799;SDS011;7491;57.750;11.970;2023-06-01T01:39:19;12.85;;;4.28;;
14799;SDS011;7491;57.750;11.970;2023-06-01T01:41:46;16.45;;;4.57;;
14799;SDS011;7491;57.750;11.970;2023-06-01T01:44:12;13.18;;;4.38;;
14799;SDS011;7491;57.750;11.970;2023-06-01T01:46:43;9.85;;;3.67;;
14799;SDS011;7491;57.750;11.970;2023-06-01T01:49:18;13.25;;;4.32;;
14799;SDS011;7491;57.750;11.970;2023-06-01T01:51:54;17.38;;;4.97;;
14799;SDS011;7491;57.750;11.970;2023-06-01T01:54:28;16.13;;;5.18;;
14799;SDS011;7491;57.750;11.970;2023-06-01T01:56:58;10.65;;;3.88;;
14799;SDS011;7491;57.750;11.970;2023-06-01T01:59:26;10.80;;;3.88;;
14799;SDS011;7491;57.750;11.970;2023-06-01T02:01:55;11.63;;;4.05;;
14799;SDS011;7491;57.750;11.970;2023-06-01T02:04:22;19.20;;;5.07;;
14799;SDS011;7491;57.750;11.970;2023-06-01T02:06:49;17.40;;;4.22;;
14799;SDS011;7491;57.750;11.970;2023-06-01T02:09:16;16.15;;;4.35;;
14799;SDS011;7491;57.750;11.970;2023-06-01T02:11:43;17.80;;;4.93;;
14799;SDS011;7491;57.750;11.970;2023-06-01T02:14:10;17.38;;;4.93;;
14799;SDS011;7491;57.750;11.970;2023-06-01T02:16:37;15.70;;;5.18;;
14799;SDS011;7491;57.750;11.970;2023-06-01T02:19:05;16.25;;;5.10;;
14799;SDS011;7491;57.750;11.970;2023-06-01T02:21:36;20.63;;;4.63;;
14799;SDS011;7491;57.750;11.970;2023-06-01T02:24:02;12.75;;;4.70;;
14799;SDS011;7491;57.750;11.970;2023-06-01T02:26:32;15.98;;;4.68;;
14799;SDS011;7491;57.750;11.970;2023-06-01T02:28:59;14.18;;;4.43;;
14799;SDS011;7491;57.750;11.970;2023-06-01T02:31:27;20.08;;;5.25;;
14799;SDS011;7491;57.750;11.970;2023-06-01T02:33:54;16.65;;;4.28;;
14799;SDS011;7491;57.750;11.970;2023-06-01T02:36:22;17.92;;;4.78;;
14799;SDS011;7491;57.750;11.970;2023-06-01T02:38:50;13.40;;;4.22;;
14799;SDS011;7491;57.750;11.970;2023-06-01T02:41:17;17.15;;;4.35;;
14799;SDS011;7491;57.750;11.970;2023-06-01T02:43:43;17.65;;;5.18;;
14799;SDS011;7491;57.750;11.970;2023-06-01T02:46:10;19.30;;;4.63;;
14799;SDS011;7491;57.750;11.970;2023-06-01T02:48:37;13.68;;;3.97;;
14799;SDS011;7491;57.750;11.970;2023-06-01T02:51:04;11.68;;;4.03;;
14799;SDS011;7491;57.750;11.970;2023-06-01T02:53:32;8.98;;;3.33;;
14799;SDS011;7491;57.750;11.970;2023-06-01T02:55:59;13.93;;;5.05;;
14799;SDS011;7491;57.750;11.970;2023-06-01T02:58:26;15.88;;;4.78;;
14799;SDS011;7491;57.750;11.970;2023-06-01T03:00:54;13.95;;;4.13;;
14799;SDS011;7491;57.750;11.970;2023-06-01T03:03:23;12.23;;;4.18;;
14799;SDS011;7491;57.750;11.970;2023-06-01T03:05:50;11.55;;;4.43;;
14799;SDS011;7491;57.750;11.970;2023-06-01T03:08:17;15.55;;;4.03;;
14799;SDS011;7491;57.750;11.970;2023-06-01T03:10:45;15.55;;;4.30;;
14799;SDS011;7491;57.750;11.970;2023-06-01T03:13:12;11.80;;;4.20;;
14799;SDS011;7491;57.750;11.970;2023-06-01T03:15:39;15.70;;;3.90;;
14799;SDS011;7491;57.750;11.970;2023-06-01T03:18:05;14.45;;;4.68;;
14799;SDS011;7491;57.750;11.970;2023-06-01T03:20:33;14.05;;;4.03;;
14799;SDS011;7491;57.750;11.970;2023-06-01T03:23:00;12.70;;;4.03;;
14799;SDS011;7491;57.750;11.970;2023-06-01T03:25:27;11.60;;;3.97;;
14799;SDS011;7491;57.750;11.970;2023-06-01T03:27:55;14.13;;;4.10;;
14799;SDS011;7491;57.750;11.970;2023-06-01T03:30:22;16.08;;;4.57;;
14799;SDS011;7491;57.750;11.970;2023-06-01T03:32:49;11.95;;;3.50;;
14799;SDS011;7491;57.750;11.970;2023-06-01T03:35:16;9.82;;;4.50;;
14799;SDS011;7491;57.750;11.970;2023-06-01T03:37:43;9.10;;;3.00;;
14799;SDS011;7491;57.750;11.970;2023-06-01T03:40:12;12.65;;;3.10;;
14799;SDS011;7491;57.750;11.970;2023-06-01T03:42:40;8.77;;;3.00;;
14799;SDS011;7491;57.750;11.970;2023-06-01T03:45:10;8.95;;;2.90;;
14799;SDS011;7491;57.750;11.970;2023-06-01T03:47:37;7.13;;;2.40;;
14799;SDS011;7491;57.750;11.970;2023-06-01T03:50:05;7.20;;;3.08;;
14799;SDS011;7491;57.750;11.970;2023-06-01T03:52:33;6.63;;;2.25;;
14799;SDS011;7491;57.750;11.970;2023-06-01T03:55:02;6.97;;;3.00;;
14799;SDS011;7491;57.750;11.970;2023-06-01T03:57:33;4.68;;;2.20;;
14799;SDS011;7491;57.750;11.970;2023-06-01T04:00:00;8.18;;;2.72;;
14799;SDS011;7491;57.750;11.970;2023-06-01T04:02:29;9.18;;;2.60;;
14799;SDS011;7491;57.750;11.970;2023-06-01T04:04:56;9.48;;;2.70;;
14799;SDS011;7491;57.750;11.970;2023-06-01T04:07:23;7.53;;;2.80;;
14799;SDS011;7491;57.750;11.970;2023-06-01T04:09:50;5.90;;;2.28;;
14799;SDS011;7491;57.750;11.970;2023-06-01T04:12:17;6.47;;;1.85;;
14799;SDS011;7491;57.750;11.970;2023-06-01T04:14:44;10.02;;;2.00;;
14799;SDS011;7491;57.750;11.970;2023-06-01T04:17:11;7.65;;;2.67;;
14799;SDS011;7491;57.750;11.970;2023-06-01T04:19:39;5.25;;;1.88;;
14799;SDS011;7491;57.750;11.970;2023-06-01T04:22:05;3.88;;;1.80;;
14799;SDS011;7491;57.750;11.970;2023-06-01T04:24:32;5.00;;;1.92;;
14799;SDS011;7491;57.750;11.970;2023-06-01T04:26:59;6.65;;;1.95;;
14799;SDS011;7491;57.750;11.970;2023-06-01T04:29:27;6.30;;;2.20;;
14799;SDS011;7491;57.750;11.970;2023-06-01T04:31:54;9.70;;;1.95;;
14799;SDS011;7491;57.750;11.970;2023-06-01T04:34:21;6.80;;;2.00;;
14799;SDS011;7491;57.750;11.970;2023-06-01T04:36:50;6.82;;;1.80;;
14799;SDS011;7491;57.750;11.970;2023-06-01T04:39:17;3.50;;;1.60;;
14799;SDS011;7491;57.750;11.970;2023-06-01T04:41:44;3.35;;;1.75;;
14799;SDS011;7491;57.750;11.970;2023-06-01T04:44:12;3.92;;;1.42;;
14799;SDS011;7491;57.750;11.970;2023-06-01T04:46:38;5.22;;;1.88;;
14799;SDS011;7491;57.750;11.970;2023-06-01T04:49:06;4.13;;;2.00;;
14799;SDS011;7491;57.750;11.970;2023-06-01T04:51:32;5.30;;;1.67;;
14799;SDS011;7491;57.750;11.970;2023-06-01T04:54:03;2.92;;;1.55;;
14799;SDS011;7491;57.750;11.970;2023-06-01T04:56:30;1.88;;;1.63;;
14799;SDS011;7491;57.750;11.970;2023-06-01T04:58:56;1.40;;;1.30;;
14799;SDS011;7491;57.750;11.970;2023-06-01T05:01:24;1.48;;;1.20;;
14799;SDS011;7491;57.750;11.970;2023-06-01T05:03:54;3.85;;;1.77;;
14799;SDS011;7491;57.750;11.970;2023-06-01T05:06:22;4.15;;;1.27;;
14799;SDS011;7491;57.750;11.970;2023-06-01T05:08:50;2.70;;;1.52;;
14799;SDS011;7491;57.750;11.970;2023-06-01T05:11:18;13.20;;;1.92;;
14799;SDS011;7491;57.750;11.970;2023-06-01T05:13:46;2.67;;;1.40;;
14799;SDS011;7491;57.750;11.970;2023-06-01T05:16:13;3.00;;;1.60;;
14799;SDS011;7491;57.750;11.970;2023-06-01T05:18:40;4.13;;;1.50;;
14799;SDS011;7491;57.750;11.970;2023-06-01T05:21:07;3.38;;;1.60;;
14799;SDS011;7491;57.750;11.970;2023-06-01T05:23:34;4.65;;;1.40;;
14799;SDS011;7491;57.750;11.970;2023-06-01T05:26:00;3.30;;;1.60;;
14799;SDS011;7491;57.750;11.970;2023-06-01T05:28:30;2.00;;;1.55;;
14799;SDS011;7491;57.750;11.970;2023-06-01T05:30:57;4.13;;;1.83;;
14799;SDS011;7491;57.750;11.970;2023-06-01T05:33:24;4.95;;;1.45;;
14799;SDS011;7491;57.750;11.970;2023-06-01T05:35:51;2.38;;;0.90;;
14799;SDS011;7491;57.750;11.970;2023-06-01T05:38:20;1.85;;;1.20;;
14799;SDS011;7491;57.750;11.970;2023-06-01T05:40:47;5.97;;;1.38;;
14799;SDS011;7491;57.750;11.970;2023-06-01T05:43:14;2.15;;;1.10;;
14799;SDS011;7491;57.750;11.970;2023-06-01T05:45:43;1.90;;;0.98;;
14799;SDS011;7491;57.750;11.970;2023-06-01T05:48:09;3.70;;;1.10;;
14799;SDS011;7491;57.750;11.970;2023-06-01T05:50:38;8.77;;;1.10;;
14799;SDS011;7491;57.750;11.970;2023-06-01T05:53:05;4.03;;;1.05;;
14799;SDS011;7491;57.750;11.970;2023-06-01T05:55:32;4.22;;;1.15;;
14799;SDS011;7491;57.750;11.970;2023-06-01T05:57:59;2.03;;;0.95;;
14799;SDS011;7491;57.750;11.970;2023-06-01T06:00:25;3.92;;;1.00;;
14799;SDS011;7491;57.750;11.970;2023-06-01T06:02:54;1.63;;;1.00;;
14799;SDS011;7491;57.750;11.970;2023-06-01T06:05:21;3.25;;;1.42;;
14799;SDS011;7491;57.750;11.970;2023-06-01T06:07:47;1.23;;;0.85;;
14799;SDS011;7491;57.750;11.970;2023-06-01T06:10:14;3.42;;;0.80;;
14799;SDS011;7491;57.750;11.970;2023-06-01T06:12:41;3.10;;;0.73;;
14799;SDS011;7491;57.750;11.970;2023-06-01T06:15:08;3.97;;;0.70;;
14799;SDS011;7491;57.750;11.970;2023-06-01T06:17:36;3.42;;;1.33;;
14799;SDS011;7491;57.750;11.970;2023-06-01T06:20:05;3.08;;;0.82;;
14799;SDS011;7491;57.750;11.970;2023-06-01T06:22:33;1.75;;;0.80;;
14799;SDS011;7491;57.750;11.970;2023-06-01T06:25:00;0.60;;;0.60;;
14799;SDS011;7491;57.750;11.970;2023-06-01T06:27:26;2.08;;;0.80;;
14799;SDS011;7491;57.750;11.970;2023-06-01T06:29:53;1.50;;;0.65;;
14799;SDS011;7491;57.750;11.970;2023-06-01T06:32:20;0.93;;;0.52;;
14799;SDS011;7491;57.750;11.970;2023-06-01T06:34:47;5.95;;;1.08;;
14799;SDS011;7491;57.750;11.970;2023-06-01T06:37:16;1.15;;;0.57;;
14799;SDS011;7491;57.750;11.970;2023-06-01T06:39:43;2.50;;;0.70;;
14799;SDS011;7491;57.750;11.970;2023-06-01T06:42:10;4.32;;;0.50;;
14799;SDS011;7491;57.750;11.970;2023-06-01T06:44:37;1.13;;;0.63;;
14799;SDS011;7491;57.750;11.970;2023-06-01T06:47:04;4.88;;;0.65;;
14799;SDS011;7491;57.750;11.970;2023-06-01T06:49:31;4.70;;;0.65;;
14799;SDS011;7491;57.750;11.970;2023-06-01T06:51:58;3.08;;;0.68;;
14799;SDS011;7491;57.750;11.970;2023-06-01T06:54:26;4.72;;;0.93;;
14799;SDS011;7491;57.750;11.970;2023-06-01T06:56:53;1.23;;;0.60;;
14799;SDS011;7491;57.750;11.970;2023-06-01T06:59:20;2.05;;;0.73;;
14799;SDS011;7491;57.750;11.970;2023-06-01T07:01:47;6.28;;;0.82;;
14799;SDS011;7491;57.750;11.970;2023-06-01T07:04:14;3.53;;;1.00;;
14799;SDS011;7491;57.750;11.970;2023-06-01T07:06:41;2.58;;;0.60;;
14799;SDS011;7491;57.750;11.970;2023-06-01T07:09:08;3.28;;;0.65;;
14799;SDS011;7491;57.750;11.970;2023-06-01T07:11:36;3.75;;;0.70;;
14799;SDS011;7491;57.750;11.970;2023-06-01T07:14:03;1.88;;;0.55;;
14799;SDS011;7491;57.750;11.970;2023-06-01T07:16:30;1.10;;;0.40;;
14799;SDS011;7491;57.750;11.970;2023-06-01T07:18:57;2.38;;;0.80;;
14799;SDS011;7491;57.750;11.970;2023-06-01T07:21:26;8.55;;;0.93;;
14799;SDS011;7491;57.750;11.970;2023-06-01T07:23:52;15.77;;;0.80;;
14799;SDS011;7491;57.750;11.970;2023-06-01T07:26:19;0.80;;;0.80;;
14799;SDS011;7491;57.750;11.970;2023-06-01T07:28:49;5.18;;;0.80;;
14799;SDS011;7491;57.750;11.970;2023-06-01T07:31:18;2.08;;;0.70;;
14799;SDS011;7491;57.750;11.970;2023-06-01T07:33:45;2.45;;;0.57;;
14799;SDS011;7491;57.750;11.970;2023-06-01T07:36:12;0.57;;;0.50;;
14799;SDS011;7491;57.750;11.970;2023-06-01T07:38:39;1.70;;;0.70;;
14799;SDS011;7491;57.750;11.970;2023-06-01T07:41:08;2.88;;;0.80;;
14799;SDS011;7491;57.750;11.970;2023-06-01T07:43:35;2.47;;;0.60;;
14799;SDS011;7491;57.750;11.970;2023-06-01T07:46:03;5.68;;;0.50;;
14799;SDS011;7491;57.750;11.970;2023-06-01T07:48:30;5.68;;;0.93;;
14799;SDS011;7491;57.750;11.970;2023-06-01T07:51:01;1.40;;;0.55;;
14799;SDS011;7491;57.750;11.970;2023-06-01T07:53:28;2.25;;;0.70;;
14799;SDS011;7491;57.750;11.970;2023-06-01T07:55:55;3.88;;;0.50;;
14799;SDS011;7491;57.750;11.970;2023-06-01T07:58:22;1.45;;;1.20;;
14799;SDS011;7491;57.750;11.970;2023-06-01T08:00:48;1.80;;;0.50;;
14799;SDS011;7491;57.750;11.970;2023-06-01T08:03:18;2.92;;;0.80;;
14799;SDS011;7491;57.750;11.970;2023-06-01T08:05:45;3.92;;;0.77;;
14799;SDS011;7491;57.750;11.970;2023-06-01T08:08:12;3.33;;;0.70;;
14799;SDS011;7491;57.750;11.970;2023-06-01T08:10:39;1.70;;;0.32;;
14799;SDS011;7491;57.750;11.970;2023-06-01T08:13:06;4.10;;;0.60;;
14799;SDS011;7491;57.750;11.970;2023-06-01T08:15:33;8.93;;;0.90;;
14799;SDS011;7491;57.750;11.970;2023-06-01T08:18:02;1.48;;;0.75;;
14799;SDS011;7491;57.750;11.970;2023-06-01T08:20:30;2.30;;;0.60;;
14799;SDS011;7491;57.750;11.970;2023-06-01T08:22:58;2.60;;;0.80;;
14799;SDS011;7491;57.750;11.970;2023-06-01T08:25:25;2.75;;;0.63;;
14799;SDS011;7491;57.750;11.970;2023-06-01T08:27:52;3.30;;;0.50;;
14799;SDS011;7491;57.750;11.970;2023-06-01T08:30:19;6.05;;;0.50;;
14799;SDS011;7491;57.750;11.970;2023-06-01T08:32:46;3.38;;;1.27;;
14799;SDS011;7491;57.750;11.970;2023-06-01T08:35:13;0.80;;;0.60;;
14799;SDS011;7491;57.750;11.970;2023-06-01T08:37:42;3.45;;;0.68;;
14799;SDS011;7491;57.750;11.970;2023-06-01T08:40:10;0.95;;;0.50;;
14799;SDS011;7491;57.750;11.970;2023-06-01T08:42:39;1.77;;;0.50;;
14799;SDS011;7491;57.750;11.970;2023-06-01T08:45:12;4.95;;;0.65;;
14799;SDS011;7491;57.750;11.970;2023-06-01T08:47:40;2.10;;;0.50;;
14799;SDS011;7491;57.750;11.970;2023-06-01T08:50:08;1.38;;;0.43;;
14799;SDS011;7491;57.750;11.970;2023-06-01T08:52:36;1.25;;;0.70;;
14799;SDS011;7491;57.750;11.970;2023-06-01T08:55:06;1.48;;;0.50;;
14799;SDS011;7491;57.750;11.970;2023-06-01T08:57:34;0.75;;;0.63;;
14799;SDS011;7491;57.750;11.970;2023-06-01T09:00:01;2.83;;;0.50;;
14799;SDS011;7491;57.750;11.970;2023-06-01T09:02:28;1.25;;;0.60;;
14799;SDS011;7491;57.750;11.970;2023-06-01T09:04:54;0.77;;;0.50;;
14799;SDS011;7491;57.750;11.970;2023-06-01T09:07:22;5.85;;;0.98;;
14799;SDS011;7491;57.750;11.970;2023-06-01T09:09:49;5.72;;;0.80;;
14799;SDS011;7491;57.750;11.970;2023-06-01T09:12:23;1.73;;;0.50;;
14799;SDS011;7491;57.750;11.970;2023-06-01T09:15:06;1.98;;;0.70;;
14799;SDS011;7491;57.750;11.970;2023-06-01T09:17:35;5.47;;;0.85;;
14799;SDS011;7491;57.750;11.970;2023-06-01T09:20:03;0.43;;;0.43;;
14799;SDS011;7491;57.750;11.970;2023-06-01T09:22:37;5.13;;;0.77;;
14799;SDS011;7491;57.750;11.970;2023-06-01T09:25:06;0.93;;;0.57;;
14799;SDS011;7491;57.750;11.970;2023-06-01T09:27:42;3.50;;;1.00;;
14799;SDS011;7491;57.750;11.970;2023-06-01T09:30:11;2.65;;;0.88;;
14799;SDS011;7491;57.750;11.970;2023-06-01T09:32:39;3.25;;;0.80;;
14799;SDS011;7491;57.750;11.970;2023-06-01T09:35:06;5.55;;;0.80;;
14799;SDS011;7491;57.750;11.970;2023-06-01T09:37:33;2.63;;;0.65;;
14799;SDS011;7491;57.750;11.970;2023-06-01T09:40:01;1.13;;;0.60;;
14799;SDS011;7491;57.750;11.970;2023-06-01T09:42:32;3.97;;;0.68;;
14799;SDS011;7491;57.750;11.970;2023-06-01T09:47:45;0.50;;;0.50;;
14799;SDS011;7491;57.750;11.970;2023-06-01T09:50:15;2.00;;;0.60;;
14799;SDS011;7491;57.750;11.970;2023-06-01T09:52:59;1.27;;;0.77;;
14799;SDS011;7491;57.750;11.970;2023-06-01T09:55:26;2.70;;;0.70;;
14799;SDS011;7491;57.750;11.970;2023-06-01T09:57:53;3.85;;;0.60;;
14799;SDS011;7491;57.750;11.970;2023-06-01T10:00:48;2.63;;;0.70;;
14799;SDS011;7491;57.750;11.970;2023-06-01T10:03:17;1.90;;;0.65;;
14799;SDS011;7491;57.750;11.970;2023-06-01T10:05:45;2.67;;;0.80;;
14799;SDS011;7491;57.750;11.970;2023-06-01T10:08:14;0.70;;;0.60;;
14799;SDS011;7491;57.750;11.970;2023-06-01T10:10:42;3.78;;;0.63;;
14799;SDS011;7491;57.750;11.970;2023-06-01T10:13:10;4.93;;;1.25;;
14799;SDS011;7491;57.750;11.970;2023-06-01T10:15:37;2.60;;;0.90;;
14799;SDS011;7491;57.750;11.970;2023-06-01T10:18:06;2.33;;;0.60;;
14799;SDS011;7491;57.750;11.970;2023-06-01T10:20:33;1.90;;;0.70;;
14799;SDS011;7491;57.750;11.970;2023-06-01T10:23:01;1.23;;;0.73;;
14799;SDS011;7491;57.750;11.970;2023-06-01T10:25:29;1.52;;;0.77;;
14799;SDS011;7491;57.750;11.970;2023-06-01T10:28:00;6.97;;;0.73;;
14799;SDS011;7491;57.750;11.970;2023-06-01T10:30:29;0.70;;;0.70;;
14799;SDS011;7491;57.750;11.970;2023-06-01T10:32:56;0.60;;;0.55;;
14799;SDS011;7491;57.750;11.970;2023-06-01T10:38:23;0.85;;;0.55;;
14799;SDS011;7491;57.750;11.970;2023-06-01T10:40:50;3.83;;;0.60;;
14799;SDS011;7491;57.750;11.970;2023-06-01T10:49:01;3.30;;;0.70;;
14799;SDS011;7491;57.750;11.970;2023-06-01T10:51:30;0.65;;;0.60;;
14799;SDS011;7491;57.750;11.970;2023-06-01T10:54:23;2.45;;;0.70;;
14799;SDS011;7491;57.750;11.970;2023-06-01T11:02:53;2.75;;;0.60;;
14799;SDS011;7491;57.750;11.970;2023-06-01T11:05:40;0.73;;;0.68;;
14799;SDS011;7491;57.750;11.970;2023-06-01T11:11:04;1.40;;;0.70;;
14799;SDS011;7491;57.750;11.970;2023-06-01T11:13:31;3.80;;;0.70;;
14799;SDS011;7491;57.750;11.970;2023-06-01T11:18:54;0.80;;;0.80;;
14799;SDS011;7491;57.750;11.970;2023-06-01T11:21:24;1.90;;;0.60;;
14799;SDS011;7491;57.750;11.970;2023-06-01T11:23:52;1.05;;;0.68;;
14799;SDS011;7491;57.750;11.970;2023-06-01T11:26:21;1.65;;;0.60;;
14799;SDS011;7491;57.750;11.970;2023-06-01T11:28:50;1.10;;;0.95;;
14799;SDS011;7491;57.750;11.970;2023-06-01T11:31:19;0.73;;;0.70;;
14799;SDS011;7491;57.750;11.970;2023-06-01T11:33:48;1.15;;;0.50;;
14799;SDS011;7491;57.750;11.970;2023-06-01T11:36:18;2.47;;;0.70;;
14799;SDS011;7491;57.750;11.970;2023-06-01T11:38:48;0.95;;;0.50;;
14799;SDS011;7491;57.750;11.970;2023-06-01T11:41:16;3.08;;;0.50;;
14799;SDS011;7491;57.750;11.970;2023-06-01T11:43:53;2.88;;;0.70;;
14799;SDS011;7491;57.750;11.970;2023-06-01T11:46:20;1.48;;;0.85;;
14799;SDS011;7491;57.750;11.970;2023-06-01T11:48:58;3.97;;;0.77;;
14799;SDS011;7491;57.750;11.970;2023-06-01T11:51:27;1.48;;;0.93;;
14799;SDS011;7491;57.750;11.970;2023-06-01T11:53:54;0.73;;;0.65;;
14799;SDS011;7491;57.750;11.970;2023-06-01T11:56:27;1.75;;;0.65;;
14799;SDS011;7491;57.750;11.970;2023-06-01T11:58:57;2.28;;;0.75;;
14799;SDS011;7491;57.750;11.970;2023-06-01T12:01:25;2.10;;;0.85;;
14799;SDS011;7491;57.750;11.970;2023-06-01T12:03:52;2.35;;;0.82;;
14799;SDS011;7491;57.750;11.970;2023-06-01T12:06:20;7.47;;;1.13;;
14799;SDS011;7491;57.750;11.970;2023-06-01T12:08:47;1.85;;;0.82;;
14799;SDS011;7491;57.750;11.970;2023-06-01T12:11:17;6.72;;;1.00;;
14799;SDS011;7491;57.750;11.970;2023-06-01T12:13:44;0.98;;;0.85;;
14799;SDS011;7491;57.750;11.970;2023-06-01T12:16:14;2.10;;;0.77;;
14799;SDS011;7491;57.750;11.970;2023-06-01T12:18:41;6.32;;;1.30;;
14799;SDS011;7491;57.750;11.970;2023-06-01T12:21:09;6.47;;;0.98;;
14799;SDS011;7491;57.750;11.970;2023-06-01T12:23:36;3.17;;;0.90;;
14799;SDS011;7491;57.750;11.970;2023-06-01T12:26:03;4.80;;;0.80;;
14799;SDS011;7491;57.750;11.970;2023-06-01T12:31:17;4.85;;;1.00;;
14799;SDS011;7491;57.750;11.970;2023-06-01T12:33:44;3.10;;;0.90;;
14799;SDS011;7491;57.750;11.970;2023-06-01T12:36:27;2.17;;;0.75;;
14799;SDS011;7491;57.750;11.970;2023-06-01T12:38:56;2.83;;;0.60;;
14799;SDS011;7491;57.750;11.970;2023-06-01T12:41:24;2.13;;;0.95;;
14799;SDS011;7491;57.750;11.970;2023-06-01T12:43:51;9.52;;;1.05;;
14799;SDS011;7491;57.750;11.970;2023-06-01T12:46:21;2.28;;;0.80;;
14799;SDS011;7491;57.750;11.970;2023-06-01T12:48:48;3.45;;;0.75;;
14799;SDS011;7491;57.750;11.970;2023-06-01T12:51:18;6.97;;;1.00;;
14799;SDS011;7491;57.750;11.970;2023-06-01T12:53:45;4.68;;;0.80;;
14799;SDS011;7491;57.750;11.970;2023-06-01T12:56:12;2.08;;;0.60;;
14799;SDS011;7491;57.750;11.970;2023-06-01T12:58:39;0.82;;;0.70;;
14799;SDS011;7491;57.750;11.970;2023-06-01T13:01:09;2.63;;;0.80;;
14799;SDS011;7491;57.750;11.970;2023-06-01T13:03:52;4.53;;;1.20;;
14799;SDS011;7491;57.750;11.970;2023-06-01T13:06:21;3.85;;;0.95;;
14799;SDS011;7491;57.750;11.970;2023-06-01T13:08:47;10.63;;;1.88;;
14799;SDS011;7491;57.750;11.970;2023-06-01T13:11:14;6.53;;;1.00;;
14799;SDS011;7491;57.750;11.970;2023-06-01T13:13:42;1.02;;;0.50;;
14799;SDS011;7491;57.750;11.970;2023-06-01T13:16:08;0.50;;;0.50;;
14799;SDS011;7491;57.750;11.970;2023-06-01T13:18:35;2.25;;;0.80;;
14799;SDS011;7491;57.750;11.970;2023-06-01T13:21:04;0.63;;;0.63;;
14799;SDS011;7491;57.750;11.970;2023-06-01T13:23:31;10.43;;;0.80;;
14799;SDS011;7491;57.750;11.970;2023-06-01T13:25:57;7.18;;;1.02;;
14799;SDS011;7491;57.750;11.970;2023-06-01T13:28:25;1.17;;;0.52;;
14799;SDS011;7491;57.750;11.970;2023-06-01T13:30:52;2.28;;;0.57;;
14799;SDS011;7491;57.750;11.970;2023-06-01T13:33:20;2.80;;;0.68;;
14799;SDS011;7491;57.750;11.970;2023-06-01T13:35:47;3.17;;;0.80;;
14799;SDS011;7491;57.750;11.970;2023-06-01T13:38:15;1.75;;;0.60;;
14799;SDS011;7491;57.750;11.970;2023-06-01T13:40:42;1.30;;;0.80;;
14799;SDS011;7491;57.750;11.970;2023-06-01T13:43:12;2.65;;;0.80;;
14799;SDS011;7491;57.750;11.970;2023-06-01T13:45:38;2.92;;;0.60;;
14799;SDS011;7491;57.750;11.970;2023-06-01T13:48:05;2.58;;;0.60;;
14799;SDS011;7491;57.750;11.970;2023-06-01T13:50:32;1.58;;;0.60;;
14799;SDS011;7491;57.750;11.970;2023-06-01T13:52:59;2.20;;;0.90;;
14799;SDS011;7491;57.750;11.970;2023-06-01T13:55:31;2.60;;;0.70;;
14799;SDS011;7491;57.750;11.970;2023-06-01T13:58:00;1.85;;;0.60;;
14799;SDS011;7491;57.750;11.970;2023-06-01T14:00:30;1.10;;;0.57;;
14799;SDS011;7491;57.750;11.970;2023-06-01T14:02:56;1.27;;;0.90;;
14799;SDS011;7491;57.750;11.970;2023-06-01T14:05:23;0.98;;;0.65;;
14799;SDS011;7491;57.750;11.970;2023-06-01T14:07:50;1.20;;;0.65;;
14799;SDS011;7491;57.750;11.970;2023-06-01T14:10:17;1.17;;;0.70;;
14799;SDS011;7491;57.750;11.970;2023-06-01T14:12:47;0.70;;;0.52;;
14799;SDS011;7491;57.750;11.970;2023-06-01T14:15:15;1.45;;;0.45;;
14799;SDS011;7491;57.750;11.970;2023-06-01T14:17:44;1.85;;;0.68;;
14799;SDS011;7491;57.750;11.970;2023-06-01T14:20:10;1.98;;;0.73;;
14799;SDS011;7491;57.750;11.970;2023-06-01T14:22:37;3.10;;;0.70;;
14799;SDS011;7491;57.750;11.970;2023-06-01T14:25:05;2.60;;;0.70;;
14799;SDS011;7491;57.750;11.970;2023-06-01T14:27:32;1.20;;;0.60;;
14799;SDS011;7491;57.750;11.970;2023-06-01T14:30:02;3.05;;;0.70;;
14799;SDS011;7491;57.750;11.970;2023-06-01T14:32:30;1.48;;;0.70;;
14799;SDS011;7491;57.750;11.970;2023-06-01T14:34:57;0.95;;;0.75;;
14799;SDS011;7491;57.750;11.970;2023-06-01T14:37:24;2.03;;;0.70;;
14799;SDS011;7491;57.750;11.970;2023-06-01T14:39:50;1.60;;;0.75;;
14799;SDS011;7491;57.750;11.970;2023-06-01T14:42:17;1.55;;;0.80;;
14799;SDS011;7491;57.750;11.970;2023-06-01T14:44:47;0.95;;;0.70;;
14799;SDS011;7491;57.750;11.970;2023-06-01T14:47:15;3.42;;;1.05;;
14799;SDS011;7491;57.750;11.970;2023-06-01T14:49:42;2.05;;;0.60;;
14799;SDS011;7491;57.750;11.970;2023-06-01T14:52:08;2.28;;;0.82;;
14799;SDS011;7491;57.750;11.970;2023-06-01T14:54:35;0.63;;;0.60;;
14799;SDS011;7491;57.750;11.970;2023-06-01T14:57:02;1.23;;;0.65;;
14799;SDS011;7491;57.750;11.970;2023-06-01T14:59:29;2.58;;;0.98;;
14799;SDS011;7491;57.750;11.970;2023-06-01T15:01:58;0.73;;;0.50;;
14799;SDS011;7491;57.750;11.970;2023-06-01T15:04:28;1.98;;;0.70;;
14799;SDS011;7491;57.750;11.970;2023-06-01T15:06:54;1.88;;;0.60;;
14799;SDS011;7491;57.750;11.970;2023-06-01T15:09:21;2.80;;;0.80;;
14799;SDS011;7491;57.750;11.970;2023-06-01T15:11:48;1.77;;;0.65;;
14799;SDS011;7491;57.750;11.970;2023-06-01T15:14:15;0.93;;;0.60;;
14799;SDS011;7491;57.750;11.970;2023-06-01T15:16:42;1.40;;;0.70;;
14799;SDS011;7491;57.750;11.970;2023-06-01T15:19:09;2.33;;;0.68;;